Flight Track Log - Related Links

Times and Time Zones

All times are in EDT time to prevent confusion due to time zone crossing. See the N240JK flight status page for this flight to view local times or setup timezone preferences in your user account.

Time Position Orientation Groundspeed Altitude Reporting Facility
EDT Latitude Longitude Course Direction KTS MPH feet Rate Location/Type
Sun 08:22:25 AM 43.0333 -88.2167 90° East 188 216 1,600  Level KMKE
Sun 08:23:07 AM 43.0333 -88.1500 90° East 268 308 3,600 3,529 Climbing KMKE
Sun 08:24:07 AM 42.9833 -88.0667 129° Southeast 278 320 7,600 3,763 Climbing KMKE
Sun 08:25:05 AM 42.9697 -87.9672 101° East 291 335 11,000 3,277 Climbing Chicago Center
Sun 08:26:06 AM 42.9753 -87.8417 86° East 328 377 14,100 3,049 Climbing Chicago Center
Sun 08:27:07 AM 42.9756 -87.7083 90° East 348 400 17,200 2,732 Climbing Chicago Center
Sun 08:28:09 AM 42.9783 -87.5678 88° East 367 422 19,700 2,341 Climbing Chicago Center
Sun 08:29:10 AM 42.9797 -87.4186 89° East 388 447 22,000 2,262 Climbing Chicago Center
Sun 08:30:11 AM 42.9658 -87.2583 97° East 408 470 24,300 2,244 Climbing Chicago Center
Sun 08:31:13 AM 42.9511 -87.1036 97° East 413 475 26,600 1,317 Climbing Chicago Center
Sun 08:32:14 AM 42.9383 -86.9414 96° East 426 490 27,000 197 Climbing Chicago Center
Sun 08:33:15 AM 42.9225 -86.7675 97° East 460 529 27,000 393 Level Chicago Center
Sun 08:34:16 AM 42.9083 -86.5922 96° East 467 537 27,800 1,122 Climbing Chicago Center
Sun 08:35:18 AM 42.8986 -86.4194 94° East 462 532 29,300 1,610 Climbing Chicago Center
Sun 08:36:19 AM 42.8411 -86.2403 114° Southeast 453 521 31,100 1,820 Climbing Chicago Center
Sun 08:37:20 AM 42.7681 -86.1103 127° Southeast 441 507 33,000 1,902 Climbing Chicago Center
Sun 08:38:22 AM 42.6939 -85.9806 128° Southeast 440 506 35,000 1,902 Climbing Chicago Center
Sun 08:39:23 AM 42.6228 -85.8525 127° Southeast 432 497 36,900 1,820 Climbing Chicago Center
Sun 08:40:24 AM 42.5525 -85.7264 127° Southeast 425 489 38,700 1,033 Climbing Chicago Center
Sun 08:41:25 AM 42.4811 -85.6017 128° Southeast 421 484 39,000 146 Climbing Chicago Center
Sun 08:42:27 AM 42.4117 -85.4742 126° Southeast 423 487 39,000  Level Chicago Center
Sun 08:43:28 AM 42.3275 -85.3258 127° Southeast 417 480 39,000  Level Chicago Center
Sun 08:44:29 AM 42.2575 -85.2031 128° Southeast 415 478 39,000  Level Chicago Center
Sun 08:45:30 AM 42.1886 -85.0808 127° Southeast 411 473 39,000  Level Chicago Center
Sun 08:46:31 AM 42.1192 -84.9611 128° Southeast 409 471 39,000  Level Chicago Center
Sun 08:47:33 AM 42.0506 -84.8411 128° Southeast 406 467 39,000  Level Chicago Center
Sun 08:48:34 AM 41.9811 -84.7211 128° Southeast 406 467 39,000  Level Chicago Center
Sun 08:49:35 AM 41.9139 -84.6053 128° Southeast 409 471 39,000  Level Chicago Center
Sun 08:50:36 AM 41.8428 -84.4831 128° Southeast 412 474 39,000  Level Chicago Center
Sun 08:51:35 AM 41.7686 -84.3558 128° Southeast 412 474 39,000  Level Cleveland Center
Sun 08:52:35 AM 41.6872 -84.2286 131° Southeast 412 474 39,000  Level Cleveland Center
Sun 08:53:35 AM 41.6158 -84.1081 128° Southeast 412 474 39,000  Level Cleveland Center
Sun 08:54:35 AM 41.5444 -83.9875 128° Southeast 417 480 39,000  Level Cleveland Center
Sun 08:55:35 AM 41.4789 -83.8786 129° Southeast 411 473 39,000  Level Cleveland Center
Sun 08:56:35 AM 41.4072 -83.7561 128° Southeast 411 473 39,000  Level Cleveland Center
Sun 08:57:35 AM 41.3353 -83.6392 129° Southeast 411 473 39,000  Level Cleveland Center
Sun 08:58:35 AM 41.2614 -83.5169 129° Southeast 416 479 39,000  Level Cleveland Center
Sun 08:59:35 AM 41.1894 -83.4003 129° Southeast 416 479 39,000  Level Cleveland Center
Sun 09:00:35 AM 41.1153 -83.2758 128° Southeast 416 479 39,000  Level Cleveland Center
Sun 09:02:17 AM 40.9989 -83.0767 128° Southeast 415 478 39,000  Level Indianapolis Center
Sun 09:03:19 AM 40.9133 -82.9381 129° Southeast 415 478 39,000  Level Indianapolis Center
Sun 09:04:20 AM 40.8392 -82.8194 130° Southeast 416 479 39,000  Level Indianapolis Center
Sun 09:05:22 AM 40.7658 -82.6997 129° Southeast 417 480 39,000  Level Indianapolis Center
Sun 09:06:23 AM 40.6917 -82.5819 130° Southeast 416 479 39,000  Level Indianapolis Center
Sun 09:07:25 AM 40.6175 -82.4631 129° Southeast 417 480 39,000  Level Indianapolis Center
Sun 09:08:27 AM 40.5433 -82.3464 130° Southeast 415 478 39,000  Level Indianapolis Center
Sun 09:09:28 AM 40.4689 -82.2269 129° Southeast 418 481 39,000  Level Indianapolis Center
Sun 09:10:30 AM 40.3944 -82.1100 130° Southeast 417 480 39,000  Level Indianapolis Center
Sun 09:11:32 AM 40.3183 -81.9925 130° Southeast 419 482 39,000  Level Indianapolis Center
Sun 09:12:33 AM 40.2319 -81.8558 130° Southeast 417 480 39,000  Level Indianapolis Center
Sun 09:13:35 AM 40.1592 -81.7397 129° Southeast 414 476 39,000  Level Indianapolis Center
Sun 09:14:37 AM 40.0842 -81.6250 130° Southeast 411 473 39,000  Level Indianapolis Center
Sun 09:15:38 AM 40.0108 -81.5086 129° Southeast 412 474 39,000  Level Indianapolis Center
Sun 09:16:40 AM 39.9347 -81.3875 129° Southeast 412 474 39,000  Level Indianapolis Center
Sun 09:17:42 AM 39.8611 -81.2742 130° Southeast 410 472 39,000  Level Indianapolis Center
Sun 09:18:43 AM 39.7858 -81.1597 131° Southeast 415 478 39,000  Level Indianapolis Center
Sun 09:19:45 AM 39.7108 -81.0464 131° Southeast 413 475 39,000  Level Indianapolis Center
Sun 09:20:47 AM 39.6369 -80.9328 130° Southeast 412 474 39,000  Level Indianapolis Center
Sun 09:21:49 AM 39.5611 -80.8197 131° Southeast 412 474 39,000 -49 Level Indianapolis Center
Sun 09:22:50 AM 39.4856 -80.7047 130° Southeast 417 480 38,900 -537 Descending Indianapolis Center
Sun 09:23:52 AM 39.3961 -80.5672 130° Southeast 415 478 37,900 -722 Descending Indianapolis Center
Sun 09:25:28 AM 39.2900 -80.4108 131° Southeast 407 468 37,000 -351 Descending Washington Center
Sun 09:26:26 AM 39.2153 -80.2986 131° Southeast 407 468 37,000  Level Washington Center
Sun 09:27:26 AM 39.1403 -80.1869 131° Southeast 407 468 37,000  Level Washington Center
Sun 09:28:27 AM 39.0656 -80.0725 130° Southeast 407 468 37,000  Level Washington Center
Sun 09:29:28 AM 38.9803 -79.9550 133° Southeast 407 468 37,000  Level Washington Center
Sun 09:30:28 AM 38.9050 -79.8439 131° Southeast 407 468 37,000  Level Washington Center
Sun 09:31:28 AM 38.8294 -79.7356 132° Southeast 407 468 37,000  Level Washington Center
Sun 09:32:27 AM 38.7519 -79.6219 131° Southeast 407 468 37,000  Level Washington Center
Sun 09:33:28 AM 38.6867 -79.5228 130° Southeast 407 468 37,000  Level Washington Center
Sun 09:34:28 AM 38.6089 -79.4097 131° Southeast 407 468 37,000  Level Washington Center
Sun 09:35:26 AM 38.5311 -79.2994 132° Southeast 407 468 37,000  Level Washington Center
Sun 09:36:27 AM 38.4572 -79.1869 130° Southeast 407 468 37,000 -836 Level Washington Center
Sun 09:37:28 AM 38.3711 -79.0664 132° Southeast 413 475 35,300 -2,339 Descending Washington Center
Sun 09:38:25 AM 38.2972 -78.9544 130° Southeast 413 475 32,400 -2,949 Descending Washington Center
Sun 09:39:26 AM 38.2189 -78.8450 132° Southeast 413 475 29,500 -2,557 Descending Washington Center
Sun 09:40:27 AM 38.1406 -78.7336 132° Southeast 413 475 27,200 -1,230 Descending Washington Center
Sun 09:41:28 AM 38.0600 -78.6194 132° Southeast 419 482 27,000 -101 Descending Washington Center
Sun 09:42:26 AM 37.9856 -78.5136 132° Southeast 428 493 27,000  Level Washington Center
Sun 09:43:27 AM 37.9047 -78.4000 132° Southeast 428 493 27,000  Level Washington Center
Sun 09:44:28 AM 37.8197 -78.2836 133° Southeast 434 499 27,000  Level Washington Center
Sun 09:45:28 AM 37.7347 -78.1650 132° Southeast 440 506 27,000  Level Washington Center
Sun 09:46:26 AM 37.6539 -78.0497 132° Southeast 445 512 27,000  Level Washington Center
Sun 09:47:27 AM 37.5686 -77.9342 133° Southeast 445 512 27,000  Level Washington Center
Sun 09:48:28 AM 37.4811 -77.8189 134° Southeast 445 512 27,000  Level Washington Center
Sun 09:49:25 AM 37.3956 -77.7014 132° Southeast 445 512 27,000  Level Washington Center
Sun 09:50:26 AM 37.3119 -77.5894 133° Southeast 450 518 27,000  Level Washington Center
Sun 09:51:27 AM 37.2261 -77.4700 132° Southeast 450 518 27,000 -590 Level Washington Center
Sun 09:52:28 AM 37.1322 -77.3425 133° Southeast 450 518 25,800 -1,190 Descending Washington Center
Sun 09:53:28 AM 37.0503 -77.2261 131° Southeast 450 518 24,600 -1,846 Descending Washington Center
Sun 09:54:25 AM 36.9642 -77.1125 133° Southeast 445 512 22,200 -2,377 Descending Washington Center
Sun 09:55:14 AM 36.8986 -77.0308 135° Southeast 448 516 20,400 -2,376 Descending Washington Center
Sun 09:56:06 AM 36.8225 -76.9256 132° Southeast 446 513 18,200 -1,927 Descending Washington Center
Sun 09:57:03 AM 36.7486 -76.8258 133° Southeast 416 479 16,900 -661 Descending Washington Center
Sun 09:58:04 AM 36.6764 -76.7314 134° Southeast 373 429 16,900 -803 Level Washington Center
Sun 09:59:10 AM 36.6022 -76.6294 132° Southeast 353 406 15,200 -1,835 Descending Washington Center
Sun 10:00:05 AM 36.5464 -76.5589 135° Southeast 317 365 13,200 -2,121 Descending Washington Center
Sun 10:01:06 AM 36.4867 -76.4806 133° Southeast 305 351 11,100 -1,965 Descending Washington Center
Sun 10:01:58 AM 36.4369 -76.4156 134° Southeast 297 342 9,500 -1,610 Descending Washington Center
Sun 10:02:28 AM 36.4142 -76.3792 128° Southeast 293 337 8,900 -1,800 Descending Washington Center
Sun 10:02:58 AM 36.3853 -76.3453 137° Southeast 265 305 7,700 -2,637 Descending Washington Center
Sun 10:03:59 AM 36.3356 -76.2675 128° Southeast 274 315 4,900 -2,508 Descending Washington Center
Sun 10:05:00 AM 36.3278 -76.1719 96° East 263 303 2,600 -1,623 Descending Washington Center
Sun 10:06:01 AM 36.3261 -76.0947 92° East 206 237 1,600 -656 Descending Washington Center
Sun 10:07:08 AM 36.2803 -76.0739 160° South 161 185 1,200 -393 Descending Washington Center
Sun 10:08:03 AM 36.2572 -76.1072 229° Southwest 159 183 800 -275 Descending Washington Center
Sun 10:08:57 AM 36.2569 -76.1406 269° West 155 178 700 -111 Descending Washington Center
Sun 10:10:00 AM 36.2500 -76.1667 270° West  Level FlightAware Approximate
Sun 10:17:00 AM 36.2606 -76.1746 270° West  Level Estimated
Sun 10:18:00 AM 36.2606 -76.1746 270° West  Level Estimated
Sun 10:19:00 AM 36.2606 -76.1746 270° West  Level Estimated
Sun 10:20:00 AM 36.2606 -76.1746 270° West  Level Estimated
Sun 10:21:00 AM 36.2606 -76.1746 270° West  Level Estimated
Sun 10:22:00 AM 36.2606 -76.1746 270° West  Level Estimated
Sun 10:23:00 AM 36.2606 -76.1746 270° West  Level Estimated
Sun 10:24:00 AM 36.2606 -76.1746 270° West  Level Estimated
Sun 10:25:00 AM 36.2606 -76.1746 270° West  Level Estimated

Login

Don't have an account? Register now (free) for customized features, flight alerts, and more!